Time;durP1;ratioP1;P1;durP2;ratioP2;P2;SDS_P1;SDS_P2;PMS_P1;PMS_P2;Temp;Humidity;BMP_temperature;BMP_pressure;BME280_temperature;BME280_humidity;BME280_pressure;Samples;Min_cycle;Max_cycle;Signal;HPM_P1;HPM_P2
2022/06/03 00:03:37;;;;;;;1.55;0.70;;;18.40;71.00;;;;;;6232249;28;20057;-86
2022/06/03 00:07:01;;;;;;;1.00;0.77;;;18.30;71.00;;;;;;6232981;28;20061;-87
2022/06/03 00:10:34;;;;;;;3.65;0.70;;;18.30;71.40;;;;;;6232261;28;20057;-87
2022/06/03 00:13:50;;;;;;;1.65;0.70;;;18.30;71.50;;;;;;6231204;28;20443;-86
2022/06/03 00:17:01;;;;;;;2.92;0.90;;;18.20;71.60;;;;;;6229707;28;20046;-87
2022/06/03 00:20:12;;;;;;;2.65;0.80;;;18.20;71.90;;;;;;6232544;28;20056;-86
2022/06/03 00:23:52;;;;;;;1.35;0.70;;;18.10;72.50;;;;;;6231204;28;20056;-88
2022/06/03 00:27:28;;;;;;;1.60;0.80;;;18.10;73.00;;;;;;6220163;28;20402;-87
2022/06/03 00:30:45;;;;;;;2.42;0.70;;;18.00;73.00;;;;;;6217462;28;20049;-87
2022/06/03 00:34:07;;;;;;;3.17;1.00;;;17.90;73.30;;;;;;6238954;28;20482;-86
2022/06/03 00:37:25;;;;;;;5.13;0.82;;;17.90;73.60;;;;;;6227336;28;20052;-87
2022/06/03 00:40:42;;;;;;;2.13;0.88;;;17.90;74.10;;;;;;6204220;28;20058;-87
2022/06/03 00:44:00;;;;;;;3.15;1.15;;;17.80;74.40;;;;;;6202818;28;20058;-87
2022/06/03 00:47:16;;;;;;;2.87;0.67;;;17.80;74.70;;;;;;6219833;28;20045;-86
2022/06/03 00:50:49;;;;;;;1.67;0.80;;;17.70;75.00;;;;;;6215579;28;20289;-87
2022/06/03 00:54:32;;;;;;;3.47;1.13;;;17.70;75.10;;;;;;6223082;28;20091;-86
2022/06/03 00:58:03;;;;;;;2.50;0.88;;;17.60;75.30;;;;;;6181641;28;20065;-85
2022/06/03 01:01:11;;;;;;;1.30;0.60;;;17.60;76.00;;;;;;6231749;28;20496;-85
2022/06/03 01:04:40;;;;;;;2.25;0.80;;;17.60;76.00;;;;;;6230340;28;20046;-86
2022/06/03 01:07:54;;;;;;;1.00;0.80;;;17.50;76.70;;;;;;6228664;28;20045;-87
2022/06/03 01:11:12;;;;;;;2.58;0.80;;;17.40;76.80;;;;;;6229649;28;20049;-87
2022/06/03 01:14:21;;;;;;;;;;;17.40;77.50;;;;;;6229756;28;20045;-88
2022/06/03 01:17:30;;;;;;;2.33;0.93;;;17.30;78.10;;;;;;6229247;28;19980;-85
2022/06/03 01:20:37;;;;;;;5.28;0.88;;;17.20;78.80;;;;;;6227652;28;20050;-86
2022/06/03 01:24:08;;;;;;;1.25;0.68;;;17.10;79.00;;;;;;6228244;28;20057;-86
2022/06/03 01:27:36;;;;;;;2.15;1.17;;;17.00;79.60;;;;;;6230422;28;20045;-85
2022/06/03 01:30:54;;;;;;;3.72;0.90;;;16.90;80.30;;;;;;6230682;28;20054;-86
2022/06/03 01:34:11;;;;;;;1.90;0.82;;;16.90;80.80;;;;;;6231208;28;20056;-87
2022/06/03 01:37:22;;;;;;;1.60;0.88;;;16.80;81.20;;;;;;6231803;28;20056;-86
2022/06/03 01:40:54;;;;;;;1.55;0.90;;;16.80;81.50;;;;;;6230160;28;20256;-86
2022/06/03 01:44:24;;;;;;;1.58;0.80;;;16.70;81.80;;;;;;6231697;28;20659;-85
2022/06/03 01:48:01;;;;;;;0.95;0.68;;;16.60;82.40;;;;;;6223296;28;20045;-85
2022/06/03 01:51:36;;;;;;;1.88;0.90;;;16.60;82.70;;;;;;6232191;28;20053;-85
2022/06/03 01:54:55;;;;;;;1.75;0.73;;;16.60;82.70;;;;;;6231666;28;20056;-85
2022/06/03 01:58:12;;;;;;;;;;;16.60;82.30;;;;;;6231064;28;20049;-85
2022/06/03 02:01:42;;;;;;;1.83;1.40;;;16.60;82.10;;;;;;6230399;28;20295;-85
2022/06/03 02:05:09;;;;;;;5.07;0.85;;;16.60;81.80;;;;;;6208365;28;20048;-85
2022/06/03 02:09:03;;;;;;;1.65;0.90;;;16.60;81.60;;;;;;6231005;28;20049;-86
2022/06/03 02:12:26;;;;;;;2.08;1.10;;;16.50;81.40;;;;;;6229686;28;20042;-85
2022/06/03 02:15:53;;;;;;;3.03;0.90;;;16.60;81.40;;;;;;6226528;28;20058;-87
2022/06/03 02:19:31;;;;;;;1.10;0.70;;;16.40;81.40;;;;;;6229143;28;20052;-86
2022/06/03 02:23:06;;;;;;;3.75;1.40;;;16.40;81.70;;;;;;6228944;28;20057;-85
2022/06/03 02:26:44;;;;;;;2.25;1.00;;;16.40;81.40;;;;;;6213185;28;20050;-87
2022/06/03 02:30:27;;;;;;;1.55;0.88;;;16.40;81.00;;;;;;6166292;28;20050;-85
2022/06/03 02:33:51;;;;;;;2.10;1.00;;;16.40;81.60;;;;;;6204653;28;20049;-87
2022/06/03 02:37:29;;;;;;;1.10;0.90;;;16.30;82.00;;;;;;6205068;28;20505;-86
2022/06/03 02:40:54;;;;;;;2.10;1.15;;;16.30;82.50;;;;;;6204452;28;20066;-85
2022/06/03 02:44:17;;;;;;;1.85;1.30;;;16.20;82.90;;;;;;6171728;28;20057;-86
2022/06/03 02:47:56;;;;;;;1.50;0.88;;;16.20;82.90;;;;;;6224881;28;20046;-87
2022/06/03 02:51:23;;;;;;;1.60;1.08;;;16.20;82.90;;;;;;6206605;28;20509;-86
2022/06/03 02:55:04;;;;;;;4.88;0.88;;;16.20;82.80;;;;;;6229582;28;20046;-85
2022/06/03 02:58:31;;;;;;;1.08;0.90;;;16.20;82.60;;;;;;6229624;28;20049;-87
2022/06/03 03:02:00;;;;;;;2.65;0.85;;;16.20;82.60;;;;;;6229963;28;20054;-87
2022/06/03 03:05:24;;;;;;;3.28;0.98;;;16.20;82.60;;;;;;6230343;28;20042;-85
2022/06/03 03:08:54;;;;;;;1.25;0.80;;;16.20;82.40;;;;;;6221269;28;20050;-86
2022/06/03 03:12:16;;;;;;;1.52;0.88;;;16.20;82.30;;;;;;6228685;28;20054;-87
2022/06/03 03:15:30;;;;;;;2.35;0.90;;;16.20;82.20;;;;;;6229411;28;20421;-86
2022/06/03 03:19:14;;;;;;;1.33;1.00;;;16.30;82.30;;;;;;6228365;28;20433;-86
2022/06/03 03:22:50;;;;;;;1.08;0.70;;;16.30;82.30;;;;;;6205796;28;20413;-84
2022/06/03 03:26:13;;;;;;;1.20;0.68;;;16.30;82.10;;;;;;6229356;28;20054;-86
2022/06/03 03:29:36;;;;;;;3.40;0.73;;;16.30;81.80;;;;;;6228741;28;20481;-86
2022/06/03 03:32:59;;;;;;;0.85;0.52;;;16.20;81.30;;;;;;6230921;28;20048;-85
2022/06/03 03:36:32;;;;;;;3.00;0.90;;;16.30;81.30;;;;;;6235555;28;20046;-87
2022/06/03 03:40:34;;;;;;;0.90;0.60;;;16.20;81.50;;;;;;6232703;28;20053;-87
2022/06/03 03:44:00;;;;;;;3.45;0.75;;;16.20;81.80;;;;;;6230842;28;20057;-86
2022/06/03 03:47:47;;;;;;;0.95;0.65;;;16.10;81.20;;;;;;6228711;28;20050;-86
2022/06/03 03:51:10;;;;;;;2.42;0.93;;;16.20;81.20;;;;;;6178999;28;20042;-86
2022/06/03 03:55:03;;;;;;;1.50;0.90;;;16.30;80.90;;;;;;6207291;28;20046;-86
2022/06/03 03:58:35;;;;;;;1.10;0.77;;;16.30;80.90;;;;;;6208601;28;20072;-87
2022/06/03 04:02:05;;;;;;;3.63;0.98;;;16.30;80.60;;;;;;6203759;28;20181;-84
2022/06/03 04:05:48;;;;;;;2.85;0.88;;;16.40;80.40;;;;;;6211540;28;20409;-83
2022/06/03 04:09:25;;;;;;;2.08;1.10;;;16.40;80.20;;;;;;6201039;28;20050;-82
2022/06/03 04:12:57;;;;;;;1.73;1.00;;;16.40;80.10;;;;;;6200630;28;20417;-82
2022/06/03 04:16:29;;;;;;;3.10;0.82;;;16.40;80.00;;;;;;6203324;28;20046;-84
2022/06/03 04:19:59;;;;;;;1.35;0.85;;;16.40;81.00;;;;;;6219431;28;20403;-86
2022/06/03 04:23:40;;;;;;;0.95;0.63;;;16.40;80.50;;;;;;6225968;28;20045;-86
2022/06/03 04:27:12;;;;;;;2.53;0.90;;;16.40;80.10;;;;;;6225878;28;20053;-84
2022/06/03 04:30:50;;;;;;;6.85;0.70;;;16.40;80.10;;;;;;6226094;28;20050;-86
2022/06/03 04:33:56;;;;;;;1.25;0.80;;;16.40;79.90;;;;;;6225296;28;20041;-85
2022/06/03 04:37:42;;;;;;;2.53;0.80;;;16.60;79.80;;;;;;6226132;28;20066;-85
2022/06/03 04:41:38;;;;;;;3.15;0.90;;;17.90;77.30;;;;;;6226457;28;20501;-85
2022/06/03 04:45:20;;;;;;;2.92;1.10;;;20.60;68.90;;;;;;6226019;28;20049;-84
2022/06/03 04:49:03;;;;;;;6.43;2.15;;;23.00;59.60;;;;;;6204307;28;20042;-84
2022/06/03 04:52:42;;;;;;;0.88;0.63;;;24.20;54.50;;;;;;6227014;28;20042;-84
2022/06/03 04:56:41;;;;;;;3.95;1.27;;;25.40;51.40;;;;;;6226748;28;20045;-84
2022/06/03 05:00:13;;;;;;;1.15;0.70;;;26.50;47.60;;;;;;6161120;28;20056;-84
2022/06/03 05:04:04;;;;;;;2.35;0.70;;;27.50;44.80;;;;;;6225983;28;20420;-85
2022/06/03 05:07:43;;;;;;;1.98;0.70;;;28.60;42.80;;;;;;6227699;28;20045;-85
2022/06/03 05:11:30;;;;;;;0.77;0.45;;;29.80;40.50;;;;;;6229990;28;20462;-84
2022/06/03 05:15:19;;;;;;;2.05;0.80;;;30.90;38.30;;;;;;6219129;28;20069;-84
2022/06/03 05:18:43;;;;;;;0.82;0.55;;;32.00;36.60;;;;;;6202417;28;20048;-83
2022/06/03 05:22:10;;;;;;;1.50;0.60;;;33.10;35.30;;;;;;6231651;28;20046;-84
2022/06/03 05:25:58;;;;;;;3.25;0.98;;;33.40;33.90;;;;;;6232680;28;20050;-82
2022/06/03 05:29:42;;;;;;;2.85;0.45;;;33.60;33.50;;;;;;6232440;28;20052;-83
2022/06/03 05:33:12;;;;;;;1.45;0.60;;;33.70;33.30;;;;;;6182817;28;20048;-83
2022/06/03 05:36:53;;;;;;;1.42;0.70;;;34.20;32.50;;;;;;6235607;28;20544;-84
2022/06/03 05:40:13;;;;;;;0.88;0.60;;;35.00;32.20;;;;;;6236542;28;20042;-86
2022/06/03 05:43:54;;;;;;;0.82;0.50;;;36.60;31.30;;;;;;6235465;28;20045;-84
2022/06/03 05:47:02;;;;;;;1.95;0.90;;;38.00;29.50;;;;;;6233010;28;20050;-83
2022/06/03 05:50:09;;;;;;;3.40;0.80;;;37.90;29.00;;;;;;6237936;28;20053;-84
2022/06/03 05:53:23;;;;;;;0.98;0.57;;;37.30;29.30;;;;;;6240302;28;20057;-84
2022/06/03 05:56:46;;;;;;;0.65;0.45;;;38.20;28.90;;;;;;6239945;28;20048;-84
2022/06/03 06:00:24;;;;;;;0.65;0.50;;;39.30;28.30;;;;;;6240166;28;20044;-84
2022/06/03 06:03:39;;;;;;;1.75;0.47;;;40.20;27.60;;;;;;6239331;28;20057;-83
2022/06/03 06:06:56;;;;;;;2.60;0.90;;;40.30;27.30;;;;;;6234712;28;20045;-82
2022/06/03 06:10:02;;;;;;;;;;;40.00;27.20;;;;;;6234267;28;20464;-83
2022/06/03 06:13:23;;;;;;;1.30;0.80;;;40.10;27.70;;;;;;6233427;28;19922;-84
2022/06/03 06:16:32;;;;;;;1.13;0.80;;;40.60;27.20;;;;;;6233481;28;20042;-83
2022/06/03 06:19:43;;;;;;;1.52;0.45;;;41.10;27.00;;;;;;6234834;28;20042;-84
2022/06/03 06:22:48;;;;;;;2.22;0.40;;;41.80;26.70;;;;;;6235452;28;20046;-83
2022/06/03 06:26:15;;;;;;;0.88;0.60;;;42.10;26.40;;;;;;6234595;28;20053;-83
2022/06/03 06:29:55;;;;;;;1.10;0.52;;;41.90;26.30;;;;;;6218769;28;20054;-83
2022/06/03 06:33:15;;;;;;;5.38;0.80;;;40.80;26.60;;;;;;6232806;28;20049;-84
2022/06/03 06:36:54;;;;;;;2.67;0.45;;;40.00;27.20;;;;;;6232284;28;20046;-84
2022/06/03 06:40:13;;;;;;;0.90;0.50;;;39.60;27.50;;;;;;6232449;28;20050;-84
2022/06/03 06:43:38;;;;;;;3.40;0.80;;;39.90;27.60;;;;;;6233710;28;20056;-84
2022/06/03 06:46:54;;;;;;;1.08;0.50;;;40.50;27.30;;;;;;6234338;28;20042;-84
2022/06/03 06:50:12;;;;;;;1.55;0.47;;;41.20;26.80;;;;;;6233146;28;20053;-82
2022/06/03 06:53:15;;;;;;;;;;;41.60;26.70;;;;;;6233854;28;20148;-85
2022/06/03 06:56:24;;;;;;;5.18;0.63;;;42.00;27.20;;;;;;6209677;28;19925;-83
2022/06/03 06:59:36;;;;;;;4.50;0.70;;;42.50;26.40;;;;;;6233681;28;20052;-83
2022/06/03 07:02:44;;;;;;;1.40;0.65;;;42.60;26.10;;;;;;6229319;28;20049;-82
2022/06/03 07:05:52;;;;;;;2.28;0.80;;;40.30;26.90;;;;;;6227304;28;20054;-83
2022/06/03 07:09:08;;;;;;;4.47;0.82;;;37.10;28.60;;;;;;6230173;28;20053;-81
2022/06/03 07:12:13;;;;;;;3.13;0.70;;;34.50;30.50;;;;;;6230810;28;20424;-81
2022/06/03 07:15:19;;;;;;;1.58;0.60;;;32.70;32.40;;;;;;6219850;28;20042;-84
2022/06/03 07:22:02;;;;;;;7.32;1.10;;;30.30;35.80;;;;;;6231398;28;20057;-86
2022/06/03 07:25:19;;;;;;;3.47;0.85;;;29.20;38.00;;;;;;6232071;28;20045;-86
2022/06/03 07:28:34;;;;;;;1.57;0.80;;;28.40;38.70;;;;;;6229255;28;20045;-86
2022/06/03 07:31:40;;;;;;;3.63;0.95;;;27.90;39.70;;;;;;6228529;28;20048;-85
2022/06/03 07:34:51;;;;;;;1.17;0.80;;;27.50;40.70;;;;;;6230835;28;20391;-82
2022/06/03 07:37:58;;;;;;;3.13;0.77;;;27.20;41.60;;;;;;6234723;28;20072;-84
2022/06/03 07:41:05;;;;;;;1.35;0.80;;;27.10;42.40;;;;;;6231773;28;20429;-84
2022/06/03 07:44:13;;;;;;;4.10;1.40;;;27.10;42.40;;;;;;6232044;28;20124;-84
2022/06/03 07:47:18;;;;;;;3.17;1.00;;;27.10;42.90;;;;;;6221247;28;20120;-83
2022/06/03 07:50:23;;;;;;;5.03;0.73;;;26.90;43.10;;;;;;6231343;28;20041;-84
2022/06/03 07:53:41;;;;;;;1.88;1.00;;;26.80;43.60;;;;;;6221709;28;20180;-81
2022/06/03 07:56:43;;;;;;;3.92;1.10;;;27.00;44.10;;;;;;6209132;28;20057;-81
2022/06/03 07:59:45;;;;;;;2.97;1.05;;;26.80;43.80;;;;;;6211082;28;20061;-83
2022/06/03 08:03:00;;;;;;;3.58;0.88;;;26.50;45.10;;;;;;6204187;28;20069;-82
2022/06/03 08:06:06;;;;;;;4.20;0.73;;;26.40;45.30;;;;;;6208927;28;20053;-83
2022/06/03 08:12:35;;;;;;;1.45;0.60;;;26.80;45.30;;;;;;6206509;28;20046;-84
2022/06/03 08:15:39;;;;;;;5.10;1.00;;;27.20;44.60;;;;;;6203606;28;20049;-86
2022/06/03 08:18:43;;;;;;;5.43;1.50;;;27.50;44.90;;;;;;6225461;28;20045;-83
2022/06/03 08:21:52;;;;;;;4.65;0.90;;;27.60;43.70;;;;;;6230717;28;20046;-83
2022/06/03 08:24:58;;;;;;;2.35;1.02;;;27.80;43.50;;;;;;6229794;28;20050;-83
2022/06/03 08:28:00;;;;;;;5.40;0.75;;;28.00;42.90;;;;;;6227709;28;20050;-84
2022/06/03 08:31:05;;;;;;;2.65;0.75;;;28.30;43.10;;;;;;6227497;28;20422;-84
2022/06/03 08:34:12;;;;;;;1.00;0.70;;;28.40;42.80;;;;;;6225134;28;20050;-81
2022/06/03 08:37:20;;;;;;;1.13;0.70;;;28.30;42.70;;;;;;6216481;28;20051;-83
2022/06/03 08:40:30;;;;;;;3.13;0.88;;;28.20;43.10;;;;;;6203837;28;20060;-83
2022/06/03 08:43:40;;;;;;;2.38;0.77;;;28.20;42.90;;;;;;6207613;28;20045;-83
2022/06/03 08:46:51;;;;;;;2.92;0.85;;;28.30;43.60;;;;;;6228864;28;20432;-86
2022/06/03 08:50:00;;;;;;;4.47;1.13;;;28.60;43.20;;;;;;6223467;28;20486;-84
2022/06/03 08:53:09;;;;;;;5.57;1.05;;;28.70;43.50;;;;;;6204791;28;20054;-84
2022/06/03 08:56:14;;;;;;;2.58;0.60;;;29.10;42.70;;;;;;6223567;28;20052;-83
2022/06/03 08:59:19;;;;;;;3.50;1.00;;;29.40;42.10;;;;;;6230027;28;20421;-82
2022/06/03 09:02:30;;;;;;;3.22;1.00;;;29.70;41.70;;;;;;6229592;28;20046;-82
2022/06/03 09:05:37;;;;;;;2.88;0.80;;;29.50;41.50;;;;;;6226414;28;20080;-82
2022/06/03 09:08:43;;;;;;;2.17;0.77;;;29.60;42.00;;;;;;6210363;28;20046;-83
2022/06/03 09:11:52;;;;;;;3.97;0.70;;;29.60;41.70;;;;;;6199574;28;20422;-83
2022/06/03 09:14:55;;;;;;;2.85;0.80;;;29.70;41.90;;;;;;6199064;28;20630;-84
2022/06/03 09:18:00;;;;;;;2.00;0.90;;;29.70;41.80;;;;;;6221497;28;20041;-83
2022/06/03 09:21:06;;;;;;;3.25;0.82;;;29.70;41.60;;;;;;6223953;28;20050;-83
2022/06/03 09:24:14;;;;;;;1.70;0.88;;;29.80;42.20;;;;;;6223443;28;20046;-83
2022/06/03 09:27:18;;;;;;;2.53;0.80;;;30.00;41.90;;;;;;6223409;28;20172;-82
2022/06/03 09:30:28;;;;;;;2.05;0.80;;;30.30;41.40;;;;;;6223414;28;20050;-83
2022/06/03 09:33:33;;;;;;;6.20;0.68;;;30.30;41.20;;;;;;6223945;28;20054;-82
2022/06/03 09:36:35;;;;;;;5.28;1.05;;;30.40;41.20;;;;;;6223554;28;20045;-83
2022/06/03 09:39:40;;;;;;;2.45;0.80;;;30.60;41.30;;;;;;6223552;28;20047;-83
2022/06/03 09:42:47;;;;;;;4.47;0.85;;;31.00;40.60;;;;;;6222793;28;20058;-83
2022/06/03 09:45:52;;;;;;;2.80;0.77;;;30.70;40.60;;;;;;6223775;28;20038;-83
2022/06/03 09:48:54;;;;;;;2.22;0.60;;;30.50;41.40;;;;;;6223516;28;20521;-82
2022/06/03 09:51:57;;;;;;;3.15;0.90;;;30.40;41.80;;;;;;6223492;28;20060;-83
2022/06/03 09:55:24;;;;;;;3.00;0.98;;;30.70;41.50;;;;;;6226581;28;20133;-83
2022/06/03 09:58:30;;;;;;;1.67;0.70;;;31.20;41.10;;;;;;6209254;28;20048;-83
2022/06/03 10:01:32;;;;;;;1.17;0.63;;;31.30;40.30;;;;;;6204150;28;20054;-84
2022/06/03 10:04:34;;;;;;;1.88;1.08;;;31.20;40.70;;;;;;6203513;28;20061;-83
2022/06/03 10:07:36;;;;;;;7.15;0.88;;;31.40;40.90;;;;;;6203394;28;20057;-84
2022/06/03 10:14:00;;;;;;;1.98;0.70;;;33.50;38.60;;;;;;6207080;28;20718;-81
2022/06/03 10:17:02;;;;;;;2.08;0.90;;;33.20;38.10;;;;;;6229922;28;20497;-83
2022/06/03 10:20:06;;;;;;;3.17;0.82;;;33.00;38.40;;;;;;6228950;28;20501;-82
2022/06/03 10:23:09;;;;;;;1.40;0.80;;;32.80;38.90;;;;;;6228675;28;20050;-85
2022/06/03 10:26:22;;;;;;;2.65;1.10;;;32.70;39.20;;;;;;6233405;28;20140;-84
2022/06/03 10:29:25;;;;;;;3.45;1.00;;;32.60;39.30;;;;;;6231109;28;20060;-84
2022/06/03 10:32:27;;;;;;;5.30;1.00;;;32.90;39.10;;;;;;6231385;28;20045;-84
2022/06/03 10:35:34;;;;;;;5.15;0.50;;;33.00;39.00;;;;;;6227431;28;20049;-83
2022/06/03 10:38:38;;;;;;;6.32;1.38;;;33.10;39.30;;;;;;6227918;28;20128;-83
2022/06/03 10:41:44;;;;;;;1.50;0.60;;;33.20;38.80;;;;;;6231034;28;20050;-86
2022/06/03 10:44:48;;;;;;;3.57;1.20;;;33.40;38.50;;;;;;6227798;28;20038;-84
2022/06/03 10:47:50;;;;;;;5.32;0.73;;;33.40;38.50;;;;;;6223671;28;20303;-84
2022/06/03 10:50:53;;;;;;;3.13;0.90;;;33.30;38.80;;;;;;6227197;28;20460;-84
2022/06/03 11:04:05;;;;;;;9.85;1.25;;;32.10;40.40;;;;;;6212319;28;20041;-84
2022/06/03 11:07:25;;;;;;;7.43;1.17;;;31.80;40.70;;;;;;6228770;28;20054;-85
2022/06/03 11:10:32;;;;;;;4.95;1.15;;;31.40;41.20;;;;;;6229388;28;20050;-84
2022/06/03 11:13:39;;;;;;;;;;;31.30;42.00;;;;;;6230739;28;20056;-85
2022/06/03 11:16:40;;;;;;;1.88;0.77;;;31.10;42.00;;;;;;6221020;28;19921;-83
2022/06/03 11:19:47;;;;;;;7.43;1.23;;;31.10;42.70;;;;;;6231540;28;20132;-85
2022/06/03 11:22:51;;;;;;;7.13;1.02;;;30.90;42.20;;;;;;6231746;28;20061;-85
2022/06/03 11:26:00;;;;;;;3.80;0.93;;;30.90;42.10;;;;;;6231804;28;20054;-85
2022/06/03 11:29:09;;;;;;;5.60;1.10;;;30.90;42.20;;;;;;6226425;28;20081;-85
2022/06/03 11:32:12;;;;;;;3.63;1.27;;;30.80;42.50;;;;;;6210532;28;20465;-85
2022/06/03 11:35:24;;;;;;;3.28;0.88;;;30.80;42.80;;;;;;6217994;28;20080;-85
2022/06/03 11:38:39;;;;;;;3.22;1.38;;;30.90;42.50;;;;;;6231837;28;20049;-84
2022/06/03 11:41:45;;;;;;;1.50;0.95;;;30.80;42.30;;;;;;6229978;28;20076;-85
2022/06/03 11:44:53;;;;;;;2.75;1.10;;;30.70;42.80;;;;;;6228325;28;20037;-84
2022/06/03 11:47:59;;;;;;;6.82;0.82;;;30.70;43.10;;;;;;6227546;28;20045;-82
2022/06/03 11:51:01;;;;;;;1.80;0.75;;;30.90;43.20;;;;;;6227047;28;20052;-85
2022/06/03 11:54:05;;;;;;;3.05;1.10;;;31.10;43.40;;;;;;6225795;28;20046;-85
2022/06/03 11:57:07;;;;;;;4.88;0.88;;;31.30;42.60;;;;;;6228011;28;20133;-84
2022/06/03 12:00:19;;;;;;;3.33;0.93;;;31.40;42.70;;;;;;6227397;28;20052;-85
2022/06/03 12:03:37;;;;;;;4.72;1.30;;;31.60;42.60;;;;;;6230690;28;20501;-85
2022/06/03 12:06:43;;;;;;;3.42;1.05;;;31.70;42.50;;;;;;6228548;28;20050;-85
2022/06/03 12:09:53;;;;;;;3.67;0.70;;;31.70;42.50;;;;;;6227557;28;20064;-84
2022/06/03 12:13:17;;;;;;;1.95;1.05;;;31.90;42.30;;;;;;6226775;28;20088;-86
2022/06/03 12:16:21;;;;;;;3.35;0.93;;;32.30;41.60;;;;;;6227533;28;20224;-84
2022/06/03 12:19:38;;;;;;;3.08;1.00;;;32.10;41.70;;;;;;6226967;28;20045;-83
2022/06/03 12:22:43;;;;;;;4.35;0.98;;;31.80;41.70;;;;;;6227807;28;20053;-84
2022/06/03 12:26:07;;;;;;;2.35;1.00;;;31.90;42.30;;;;;;6225859;28;20042;-83
2022/06/03 12:29:18;;;;;;;6.00;1.33;;;31.80;42.60;;;;;;6225447;28;20409;-84
2022/06/03 12:32:28;;;;;;;2.58;1.10;;;31.90;43.00;;;;;;6225056;28;20065;-82
2022/06/03 12:35:53;;;;;;;2.70;1.15;;;31.80;42.90;;;;;;6200182;28;20046;-84
2022/06/03 12:39:13;;;;;;;1.88;1.02;;;31.50;43.40;;;;;;6221767;28;20468;-83
2022/06/03 12:42:38;;;;;;;2.25;1.20;;;31.40;43.70;;;;;;6224554;28;20053;-84
2022/06/03 12:45:41;;;;;;;1.50;0.77;;;31.30;44.40;;;;;;6225735;28;20053;-84
2022/06/03 12:48:52;;;;;;;3.40;1.10;;;31.30;44.00;;;;;;6223494;28;20046;-85
2022/06/03 12:52:00;;;;;;;4.43;0.88;;;31.50;43.70;;;;;;6223572;28;20050;-86
2022/06/03 12:55:06;;;;;;;3.78;1.17;;;31.70;43.40;;;;;;6222975;28;20120;-84
2022/06/03 12:58:33;;;;;;;1.83;1.15;;;31.90;43.00;;;;;;6224217;28;20050;-84
2022/06/03 13:01:47;;;;;;;5.40;1.23;;;32.10;42.80;;;;;;6223255;28;20104;-85
2022/06/03 13:05:09;;;;;;;5.60;1.13;;;32.30;42.60;;;;;;6224445;28;20277;-85
2022/06/03 13:08:33;;;;;;;3.13;1.60;;;32.40;42.20;;;;;;6222953;28;20425;-85
2022/06/03 13:11:46;;;;;;;1.88;1.35;;;32.10;42.40;;;;;;6223894;28;20446;-86
2022/06/03 13:14:48;;;;;;;5.05;1.05;;;32.10;43.10;;;;;;6223426;28;20069;-85
2022/06/03 13:17:59;;;;;;;3.88;1.05;;;32.00;43.00;;;;;;6220903;28;20063;-84
2022/06/03 13:21:24;;;;;;;2.85;1.23;;;32.20;42.80;;;;;;6225287;28;20058;-85
2022/06/03 13:24:28;;;;;;;11.10;1.45;;;32.40;42.80;;;;;;6224137;28;20049;-86
2022/06/03 13:27:32;;;;;;;4.75;1.52;;;32.60;42.50;;;;;;6225576;28;20144;-84
2022/06/03 13:30:38;;;;;;;3.53;0.90;;;32.70;42.10;;;;;;6229081;28;20038;-86
2022/06/03 13:34:22;;;;;;;5.13;2.17;;;32.70;42.10;;;;;;6228718;28;20137;-85
2022/06/03 13:37:46;;;;;;;2.67;1.50;;;32.60;41.70;;;;;;6203705;28;20062;-84
2022/06/03 13:44:09;;;;;;;6.95;1.13;;;32.40;42.20;;;;;;6204694;28;20042;-85
2022/06/03 13:47:15;;;;;;;1.55;0.85;;;32.30;42.10;;;;;;6212806;28;20037;-85
2022/06/03 13:50:31;;;;;;;3.30;1.52;;;32.10;42.80;;;;;;6208827;28;20046;-85
2022/06/03 13:53:35;;;;;;;2.13;1.08;;;31.60;43.20;;;;;;6209261;28;20047;-84
2022/06/03 13:56:38;;;;;;;10.70;1.42;;;31.30;43.90;;;;;;6208556;28;20047;-85
2022/06/03 13:59:42;;;;;;;6.15;1.10;;;31.10;45.10;;;;;;6207203;28;20054;-86
2022/06/03 14:02:45;;;;;;;3.40;1.33;;;30.80;45.10;;;;;;6208214;28;20362;-84
2022/06/03 14:05:55;;;;;;;2.50;0.90;;;30.50;45.70;;;;;;6207146;28;20050;-86
2022/06/03 14:09:04;;;;;;;3.08;1.40;;;30.20;46.50;;;;;;6205120;28;20050;-86
2022/06/03 14:12:22;;;;;;;2.78;0.98;;;30.10;46.70;;;;;;6206771;28;20050;-86
2022/06/03 14:15:27;;;;;;;4.63;1.20;;;30.00;47.20;;;;;;6207621;28;20409;-86
2022/06/03 14:19:23;;;;;;;6.30;1.52;;;29.90;47.50;;;;;;6230818;28;20038;-85
2022/06/03 14:22:30;;;;;;;4.10;1.17;;;30.00;47.70;;;;;;6153154;29;20051;-85
2022/06/03 14:25:37;;;;;;;4.60;1.30;;;30.10;47.90;;;;;;6158514;28;20051;-86
2022/06/03 14:28:47;;;;;;;1.57;1.00;;;30.00;47.90;;;;;;6226924;28;20075;-86
2022/06/03 14:31:53;;;;;;;1.73;1.13;;;30.00;47.40;;;;;;6227765;28;20343;-85
2022/06/03 14:35:01;;;;;;;3.33;1.53;;;30.10;47.30;;;;;;6230136;28;20540;-86
2022/06/03 14:38:11;;;;;;;1.85;1.10;;;30.10;48.30;;;;;;6228170;28;20304;-85
2022/06/03 14:41:21;;;;;;;3.40;1.17;;;30.20;48.20;;;;;;6230731;28;20076;-85
2022/06/03 14:44:26;;;;;;;2.28;1.25;;;30.20;47.20;;;;;;6231271;28;20517;-84
2022/06/03 14:47:31;;;;;;;3.15;1.02;;;30.20;47.30;;;;;;6222075;28;20049;-86
2022/06/03 14:50:35;;;;;;;4.60;1.55;;;30.30;47.00;;;;;;6230440;28;20045;-83
2022/06/03 14:53:42;;;;;;;5.28;1.48;;;30.50;46.50;;;;;;6237071;28;20073;-85
2022/06/03 14:56:51;;;;;;;1.85;0.90;;;30.70;46.30;;;;;;6227507;28;20490;-85
2022/06/03 15:00:19;;;;;;;2.22;1.27;;;30.80;45.90;;;;;;6227732;28;20056;-86
2022/06/03 15:03:23;;;;;;;4.90;1.35;;;30.90;46.00;;;;;;6204050;28;20054;-86
2022/06/03 15:06:28;;;;;;;3.65;1.10;;;30.70;46.40;;;;;;6205673;28;20510;-86
2022/06/03 15:09:37;;;;;;;5.97;1.83;;;30.70;46.80;;;;;;6206551;28;20406;-86
2022/06/03 15:12:51;;;;;;;5.53;1.58;;;30.90;46.40;;;;;;6204724;28;20046;-86
2022/06/03 15:15:53;;;;;;;2.03;1.00;;;31.10;46.00;;;;;;6208437;28;20034;-86
2022/06/03 15:19:18;;;;;;;1.88;1.27;;;31.20;45.90;;;;;;6203945;28;20049;-85
2022/06/03 15:25:52;;;;;;;2.95;1.10;;;31.10;46.10;;;;;;6241890;28;20030;-85
2022/06/03 15:29:03;;;;;;;6.18;1.30;;;30.90;46.50;;;;;;6241440;28;20119;-85
2022/06/03 16:08:00;;;;;;;2.45;1.25;;;30.30;48.90;;;;;;6219278;28;20061;-84
2022/06/03 16:11:22;;;;;;;2.88;1.33;;;30.10;49.20;;;;;;6237238;28;20049;-85
2022/06/03 16:15:15;;;;;;;5.07;0.98;;;30.00;49.70;;;;;;6234219;28;20053;-86
2022/06/03 16:26:01;;;;;;;2.88;1.58;;;29.30;51.40;;;;;;6231164;28;20064;-86
2022/06/03 16:29:27;;;;;;;11.50;2.38;;;29.20;51.70;;;;;;6233920;28;20061;-86
2022/06/03 16:32:59;;;;;;;4.18;1.45;;;29.10;51.90;;;;;;6233860;28;20045;-86
2022/06/03 16:44:54;;;;;;;2.25;1.55;;;28.80;51.80;;;;;;6202299;28;20112;-86
2022/06/03 16:48:14;;;;;;;3.70;1.92;;;28.80;52.00;;;;;;6234787;28;20066;-87
2022/06/03 16:54:58;;;;;;;4.90;1.50;;;28.90;52.40;;;;;;6211078;28;20042;-85
2022/06/03 16:58:31;;;;;;;11.70;1.83;;;28.80;52.60;;;;;;6213756;28;20105;-86
2022/06/03 17:02:14;;;;;;;6.80;1.38;;;28.80;52.50;;;;;;6211633;28;20069;-86
2022/06/03 17:05:28;;;;;;;3.85;1.15;;;28.80;52.80;;;;;;6224829;28;20053;-85
2022/06/03 17:08:38;;;;;;;1.95;1.15;;;29.00;53.00;;;;;;6243559;28;20070;-86
2022/06/03 17:11:41;;;;;;;4.47;1.52;;;29.10;52.80;;;;;;6246979;28;20046;-86
2022/06/03 17:14:49;;;;;;;4.40;1.80;;;29.30;52.90;;;;;;6243531;28;20042;-86
2022/06/03 17:17:52;;;;;;;3.60;1.70;;;29.30;52.90;;;;;;6235500;28;20071;-86
2022/06/03 17:21:06;;;;;;;1.65;1.17;;;29.20;53.20;;;;;;6233650;28;20054;-88
2022/06/03 17:24:33;;;;;;;4.07;1.52;;;29.10;53.90;;;;;;6233565;28;20132;-86
2022/06/03 17:27:47;;;;;;;6.78;2.10;;;28.80;54.70;;;;;;6227914;28;20056;-86
2022/06/03 17:31:12;;;;;;;2.65;1.48;;;28.50;55.30;;;;;;6240629;28;20050;-85
2022/06/03 17:34:30;;;;;;;4.57;1.48;;;28.20;56.00;;;;;;6241117;28;20573;-85
2022/06/03 17:37:39;;;;;;;4.80;1.70;;;28.00;57.20;;;;;;6241060;28;20057;-85
2022/06/03 17:40:49;;;;;;;4.78;1.65;;;27.70;58.20;;;;;;6244149;28;20050;-86
2022/06/03 17:43:57;;;;;;;4.70;2.40;;;27.60;58.90;;;;;;6245138;28;20042;-87
2022/06/03 17:47:08;;;;;;;2.72;2.05;;;27.40;59.40;;;;;;6235363;28;20048;-86
2022/06/03 17:50:13;;;;;;;3.42;1.95;;;27.20;59.70;;;;;;6241344;28;20061;-84
2022/06/03 17:56:52;;;;;;;6.30;2.20;;;26.80;60.80;;;;;;6245436;28;20109;-86
2022/06/03 18:04:04;;;;;;;7.50;1.70;;;26.80;62.00;;;;;;6208972;28;20052;-86
2022/06/03 18:07:21;;;;;;;1.85;1.58;;;26.80;62.30;;;;;;6216257;28;20050;-86
2022/06/03 18:10:28;;;;;;;2.78;1.80;;;26.60;62.60;;;;;;6224406;28;20046;-86
2022/06/03 18:13:32;;;;;;;4.97;2.10;;;26.60;63.30;;;;;;6220324;28;20046;-87
2022/06/03 18:16:36;;;;;;;2.30;1.52;;;26.40;63.50;;;;;;6221960;28;20052;-85
2022/06/03 18:19:40;;;;;;;3.17;1.80;;;26.40;64.10;;;;;;6243671;28;20062;-86
2022/06/03 18:23:18;;;;;;;3.70;2.05;;;26.10;64.70;;;;;;6244930;28;20049;-85
2022/06/03 18:26:33;;;;;;;3.63;1.33;;;26.00;65.10;;;;;;6242037;28;20044;-83
2022/06/03 18:29:57;;;;;;;7.45;1.92;;;26.00;65.90;;;;;;6243441;28;20041;-86
2022/06/03 18:33:06;;;;;;;3.20;1.70;;;25.80;67.60;;;;;;6228817;28;20098;-84
2022/06/03 18:36:25;;;;;;;1.90;1.38;;;25.70;68.30;;;;;;6216671;28;20056;-82
2022/06/03 18:39:57;;;;;;;4.70;2.20;;;25.50;68.90;;;;;;6217181;28;20050;-86